createdAt,value
2016-09-11T00:00:34.356Z,1031.19
2016-09-11T00:01:34.372Z,1031.21
2016-09-11T00:02:34.325Z,1031.19
2016-09-11T00:03:34.325Z,1031.21
2016-09-11T00:04:34.324Z,1031.24
2016-09-11T00:05:34.329Z,1031.24
2016-09-11T00:06:34.317Z,1031.22
2016-09-11T00:07:34.327Z,1031.22
2016-09-11T00:08:34.330Z,1031.25
2016-09-11T00:09:34.309Z,1031.23
2016-09-11T00:10:34.306Z,1031.2
2016-09-11T00:11:34.304Z,1031.21
2016-09-11T00:12:34.308Z,1031.19
2016-09-11T00:13:34.301Z,1031.21
2016-09-11T00:14:34.302Z,1031.16
2016-09-11T00:15:34.295Z,1031.16
2016-09-11T00:16:34.295Z,1031.16
2016-09-11T00:17:34.290Z,1031.14
2016-09-11T00:18:34.289Z,1031.17
2016-09-11T00:19:34.286Z,1031.15
2016-09-11T00:20:34.285Z,1031.13
2016-09-11T00:21:34.294Z,1031.16
2016-09-11T00:22:34.288Z,1031.15
2016-09-11T00:23:34.276Z,1031.16
2016-09-11T00:24:34.275Z,1031.15
2016-09-11T00:25:34.274Z,1031.19
2016-09-11T00:26:34.268Z,1031.16
2016-09-11T00:27:34.264Z,1031.14
2016-09-11T00:28:34.264Z,1031.12
2016-09-11T00:29:34.269Z,1031.09
2016-09-11T00:30:34.776Z,1031.09
2016-09-11T00:31:34.263Z,1031.12
2016-09-11T00:32:34.252Z,1031.11
2016-09-11T00:33:34.252Z,1031.12
2016-09-11T00:34:35.181Z,1031.08
2016-09-11T00:35:35.599Z,1031.12
2016-09-11T00:36:34.298Z,1031.07
2016-09-11T00:37:34.241Z,1031.06
2016-09-11T00:38:34.242Z,1031.06
2016-09-11T00:39:34.237Z,1031.03
2016-09-11T00:40:34.235Z,1031.04
2016-09-11T00:41:34.382Z,1031.05
2016-09-11T00:42:34.227Z,1031.04
2016-09-11T00:43:34.233Z,1031.03
2016-09-11T00:44:34.222Z,1031.02
2016-09-11T00:45:34.224Z,1031.03
2016-09-11T00:46:34.216Z,1031.04
2016-09-11T00:47:34.216Z,1031
2016-09-11T00:48:34.212Z,1031.03
2016-09-11T00:49:34.213Z,1031.04
2016-09-11T00:50:34.258Z,1031.01
2016-09-11T00:51:34.338Z,1031.03
2016-09-11T00:52:34.206Z,1031
2016-09-11T00:53:34.201Z,1031.03
2016-09-11T00:54:34.205Z,1031
2016-09-11T00:55:34.195Z,1030.98
2016-09-11T00:56:34.224Z,1030.97
2016-09-11T00:57:34.210Z,1030.99
2016-09-11T00:58:34.195Z,1031
2016-09-11T00:59:34.183Z,1030.99
2016-09-11T01:00:34.182Z,1031.02
2016-09-11T01:01:34.215Z,1031
2016-09-11T01:02:34.176Z,1031.01
2016-09-11T01:03:34.172Z,1031.01
2016-09-11T01:04:34.184Z,1031
2016-09-11T01:05:34.168Z,1031
2016-09-11T01:06:34.188Z,1030.99
2016-09-11T01:07:34.182Z,1031.02
2016-09-11T01:08:34.160Z,1031.02
2016-09-11T01:09:34.163Z,1031.03
2016-09-11T01:10:34.163Z,1030.98
2016-09-11T01:11:34.154Z,1031.03
2016-09-11T01:12:34.278Z,1031.05
2016-09-11T01:13:34.147Z,1031.03
2016-09-11T01:14:34.171Z,1031.02
2016-09-11T01:15:34.147Z,1031.04
2016-09-11T01:16:34.140Z,1031
2016-09-11T01:17:34.203Z,1031.01
2016-09-11T01:18:34.188Z,1030.99
2016-09-11T01:19:34.162Z,1030.99
2016-09-11T01:20:34.132Z,1030.99
2016-09-11T01:21:34.127Z,1030.98
2016-09-11T01:22:34.122Z,1030.94
2016-09-11T01:23:34.120Z,1030.94
2016-09-11T01:24:34.118Z,1030.95
2016-09-11T01:25:34.120Z,1030.98
2016-09-11T01:26:34.294Z,1031.01
2016-09-11T01:27:34.112Z,1030.98
2016-09-11T01:28:34.127Z,1030.97
2016-09-11T01:29:34.103Z,1031
2016-09-11T01:30:34.130Z,1030.96
2016-09-11T01:31:34.122Z,1030.97
2016-09-11T01:32:37.017Z,1030.95
2016-09-11T01:33:34.096Z,1030.94
2016-09-11T01:34:34.145Z,1030.95
2016-09-11T01:35:34.095Z,1030.96
2016-09-11T01:36:34.087Z,1030.94
2016-09-11T01:37:34.081Z,1030.94
2016-09-11T01:38:34.082Z,1030.97
2016-09-11T01:39:34.079Z,1030.93
2016-09-11T01:40:34.075Z,1030.95
2016-09-11T01:41:34.073Z,1030.91
2016-09-11T01:42:34.073Z,1030.92
2016-09-11T01:43:35.718Z,1030.9
2016-09-11T01:44:35.448Z,1030.9
2016-09-11T01:45:34.063Z,1030.9
2016-09-11T01:46:34.060Z,1030.9
2016-09-11T01:47:34.058Z,1030.92
2016-09-11T01:48:34.089Z,1030.92
2016-09-11T01:49:34.403Z,1030.89
2016-09-11T01:50:34.059Z,1030.86
2016-09-11T01:51:34.054Z,1030.87
2016-09-11T01:52:34.044Z,1030.88
2016-09-11T01:53:34.181Z,1030.86
2016-09-11T01:54:34.091Z,1030.86
2016-09-11T01:55:34.038Z,1030.86
2016-09-11T01:56:34.032Z,1030.82
2016-09-11T01:57:34.170Z,1030.82
2016-09-11T01:58:34.029Z,1030.81
2016-09-11T01:59:34.043Z,1030.79
2016-09-11T02:00:34.027Z,1030.81
2016-09-11T02:01:34.024Z,1030.8
2016-09-11T02:02:34.016Z,1030.82
2016-09-11T02:03:34.014Z,1030.78
2016-09-11T02:04:34.011Z,1030.81
2016-09-11T02:05:34.016Z,1030.8
2016-09-11T02:06:34.007Z,1030.8
2016-09-11T02:07:34.019Z,1030.76
2016-09-11T02:08:34.001Z,1030.71
2016-09-11T02:09:34.006Z,1030.68
2016-09-11T02:10:33.997Z,1030.62
2016-09-11T02:11:33.995Z,1030.59
2016-09-11T02:12:33.992Z,1030.6
2016-09-11T02:13:33.990Z,1030.56
2016-09-11T02:14:33.987Z,1030.58
2016-09-11T02:15:33.985Z,1030.53
2016-09-11T02:16:33.981Z,1030.58
2016-09-11T02:17:33.977Z,1030.56
2016-09-11T02:18:33.974Z,1030.58
2016-09-11T02:19:33.973Z,1030.56
2016-09-11T02:20:33.974Z,1030.56
2016-09-11T02:21:33.972Z,1030.56
2016-09-11T02:22:34.029Z,1030.57
2016-09-11T02:23:33.960Z,1030.56
2016-09-11T02:24:33.961Z,1030.55
2016-09-11T02:25:33.981Z,1030.57
2016-09-11T02:26:33.956Z,1030.53
2016-09-11T02:27:33.952Z,1030.57
2016-09-11T02:28:33.950Z,1030.57
2016-09-11T02:29:33.945Z,1030.57
2016-09-11T02:30:33.945Z,1030.59
2016-09-11T02:31:33.944Z,1030.6
2016-09-11T02:32:33.938Z,1030.62
2016-09-11T02:33:33.935Z,1030.61
2016-09-11T02:34:33.935Z,1030.6
2016-09-11T02:35:33.967Z,1030.61
2016-09-11T02:36:33.936Z,1030.62
2016-09-11T02:37:33.942Z,1030.59
2016-09-11T02:38:33.925Z,1030.59
2016-09-11T02:39:33.923Z,1030.56
2016-09-11T02:40:33.920Z,1030.54
2016-09-11T02:41:33.917Z,1030.5
2016-09-11T02:42:33.916Z,1030.48
2016-09-11T02:43:33.911Z,1030.44
2016-09-11T02:44:33.911Z,1030.46
2016-09-11T02:45:33.981Z,1030.38
2016-09-11T02:46:33.903Z,1030.43
2016-09-11T02:47:33.902Z,1030.4
2016-09-11T02:48:33.908Z,1030.39
2016-09-11T02:49:33.898Z,1030.39
2016-09-11T02:50:33.893Z,1030.4
2016-09-11T02:51:33.895Z,1030.44
2016-09-11T02:52:33.891Z,1030.45
2016-09-11T02:53:33.888Z,1030.43
2016-09-11T02:54:33.882Z,1030.42
2016-09-11T02:55:33.888Z,1030.39
2016-09-11T02:56:33.884Z,1030.35
2016-09-11T02:57:33.879Z,1030.34
2016-09-11T02:58:33.877Z,1030.34
2016-09-11T02:59:33.875Z,1030.37
2016-09-11T03:00:33.912Z,1030.31
2016-09-11T03:01:34.237Z,1030.36
2016-09-11T03:02:34.935Z,1030.33
2016-09-11T03:03:33.881Z,1030.35
2016-09-11T03:04:33.860Z,1030.36
2016-09-11T03:05:33.857Z,1030.33
2016-09-11T03:06:33.854Z,1030.29
2016-09-11T03:07:33.855Z,1030.27
2016-09-11T03:08:33.856Z,1030.23
2016-09-11T03:09:34.499Z,1030.2
2016-09-11T03:10:33.845Z,1030.15
2016-09-11T03:11:34.294Z,1030.11
2016-09-11T03:12:34.293Z,1029.96
2016-09-11T03:13:33.839Z,1029.94
2016-09-11T03:14:33.838Z,1029.89
2016-09-11T03:15:34.069Z,1029.9
2016-09-11T03:16:33.921Z,1029.94
2016-09-11T03:17:33.827Z,1029.96
2016-09-11T03:18:33.827Z,1029.96
2016-09-11T03:19:33.825Z,1029.93
2016-09-11T03:20:33.821Z,1029.94
2016-09-11T03:21:33.823Z,1029.95
2016-09-11T03:22:33.842Z,1029.95
2016-09-11T03:23:33.814Z,1029.94
2016-09-11T03:24:33.815Z,1029.92
2016-09-11T03:25:33.812Z,1029.93
2016-09-11T03:26:33.828Z,1029.95
2016-09-11T03:27:33.809Z,1029.9
2016-09-11T03:28:33.808Z,1029.91
2016-09-11T03:29:33.812Z,1029.93
2016-09-11T03:30:33.830Z,1029.92
2016-09-11T03:31:33.807Z,1029.92
2016-09-11T03:32:33.798Z,1029.92
2016-09-11T03:33:33.810Z,1029.94
2016-09-11T03:34:33.799Z,1029.9
2016-09-11T03:35:33.800Z,1029.93
2016-09-11T03:36:33.801Z,1029.96
2016-09-11T03:37:33.786Z,1030
2016-09-11T03:38:33.788Z,1030.07
2016-09-11T03:39:33.784Z,1030.09
2016-09-11T03:40:33.781Z,1030.05
2016-09-11T03:41:33.775Z,1030.07
2016-09-11T03:42:33.790Z,1030.05
2016-09-11T03:43:33.774Z,1030.05
2016-09-11T03:44:33.773Z,1030.05
2016-09-11T03:45:33.771Z,1030.06
2016-09-11T03:46:33.767Z,1030.09
2016-09-11T03:47:33.766Z,1030.09
2016-09-11T03:48:33.762Z,1030.08
2016-09-11T03:49:33.782Z,1030.1
2016-09-11T03:50:33.757Z,1030.11
2016-09-11T03:51:33.762Z,1030.09
2016-09-11T03:52:33.753Z,1030.11
2016-09-11T03:53:33.751Z,1030.11
2016-09-11T03:54:33.747Z,1030.12
2016-09-11T03:55:33.747Z,1030.12
2016-09-11T03:56:33.744Z,1030.17
2016-09-11T03:57:33.742Z,1030.19
2016-09-11T03:58:33.740Z,1030.17
2016-09-11T03:59:33.736Z,1030.19
2016-09-11T04:00:33.734Z,1030.24
2016-09-11T04:01:33.737Z,1030.22
2016-09-11T04:02:33.730Z,1030.25
2016-09-11T04:03:33.728Z,1030.27
2016-09-11T04:04:33.723Z,1030.29
2016-09-11T04:05:33.721Z,1030.3
2016-09-11T04:06:33.727Z,1030.31
2016-09-11T04:07:33.717Z,1030.31
2016-09-11T04:08:33.712Z,1030.35
2016-09-11T04:09:33.713Z,1030.35
2016-09-11T04:10:33.710Z,1030.4
2016-09-11T04:11:33.705Z,1030.34
2016-09-11T04:12:33.705Z,1030.38
2016-09-11T04:13:33.704Z,1030.4
2016-09-11T04:14:33.698Z,1030.39
2016-09-11T04:15:33.698Z,1030.4
2016-09-11T04:16:33.697Z,1030.42
2016-09-11T04:17:33.691Z,1030.41
2016-09-11T04:18:33.695Z,1030.42
2016-09-11T04:19:33.694Z,1030.42
2016-09-11T04:20:33.704Z,1030.43
2016-09-11T04:21:33.681Z,1030.42
2016-09-11T04:22:33.682Z,1030.41
2016-09-11T04:23:33.695Z,1030.44
2016-09-11T04:24:33.674Z,1030.44
2016-09-11T04:25:33.671Z,1030.48
2016-09-11T04:26:33.673Z,1030.46
2016-09-11T04:27:34.317Z,1030.49
2016-09-11T04:28:33.661Z,1030.5
2016-09-11T04:29:34.259Z,1030.47
2016-09-11T04:30:34.779Z,1030.51
2016-09-11T04:31:34.289Z,1030.51
2016-09-11T04:32:33.652Z,1030.5
2016-09-11T04:33:33.785Z,1030.51
2016-09-11T04:34:33.838Z,1030.58
2016-09-11T04:35:33.645Z,1030.6
2016-09-11T04:36:34.892Z,1030.58
2016-09-11T04:37:33.638Z,1030.6
2016-09-11T04:38:33.637Z,1030.62
2016-09-11T04:39:33.632Z,1030.62
2016-09-11T04:40:33.631Z,1030.62
2016-09-11T04:41:33.626Z,1030.59
2016-09-11T04:42:33.625Z,1030.59
2016-09-11T04:43:33.629Z,1030.6
2016-09-11T04:44:33.618Z,1030.64
2016-09-11T04:45:33.617Z,1030.59
2016-09-11T04:46:33.614Z,1030.63
2016-09-11T04:47:33.611Z,1030.6
2016-09-11T04:48:33.612Z,1030.64
2016-09-11T04:49:33.604Z,1030.64
2016-09-11T04:50:33.602Z,1030.65
2016-09-11T04:51:33.598Z,1030.67
2016-09-11T04:52:33.594Z,1030.69
2016-09-11T04:53:33.594Z,1030.7
2016-09-11T04:54:33.591Z,1030.66
2016-09-11T04:55:33.588Z,1030.68
2016-09-11T04:56:33.585Z,1030.67
2016-09-11T04:57:33.582Z,1030.71
2016-09-11T04:58:33.580Z,1030.7
2016-09-11T04:59:33.577Z,1030.72
2016-09-11T05:00:33.572Z,1030.69
2016-09-11T05:01:33.571Z,1030.71
2016-09-11T05:02:33.568Z,1030.66
2016-09-11T05:03:33.565Z,1030.69
2016-09-11T05:04:33.564Z,1030.66
2016-09-11T05:05:33.559Z,1030.66
2016-09-11T05:06:33.557Z,1030.66
2016-09-11T05:07:33.556Z,1030.64
2016-09-11T05:08:33.552Z,1030.65
2016-09-11T05:09:33.572Z,1030.64
2016-09-11T05:10:33.549Z,1030.64
2016-09-11T05:11:33.543Z,1030.65
2016-09-11T05:12:33.541Z,1030.63
2016-09-11T05:13:33.537Z,1030.63
2016-09-11T05:14:33.536Z,1030.61
2016-09-11T05:15:33.533Z,1030.6
2016-09-11T05:16:33.531Z,1030.59
2016-09-11T05:17:33.526Z,1030.56
2016-09-11T05:18:33.525Z,1030.55
2016-09-11T05:19:33.524Z,1030.51
2016-09-11T05:20:33.523Z,1030.47
2016-09-11T05:21:33.516Z,1030.47
2016-09-11T05:22:33.515Z,1030.44
2016-09-11T05:23:33.513Z,1030.4
2016-09-11T05:24:33.508Z,1030.38
2016-09-11T05:25:33.508Z,1030.33
2016-09-11T05:26:33.504Z,1030.31
2016-09-11T05:27:33.499Z,1030.26
2016-09-11T05:28:33.497Z,1030.24
2016-09-11T05:29:33.498Z,1030.17
2016-09-11T05:30:33.492Z,1030.11
2016-09-11T05:31:33.490Z,1030.08
2016-09-11T05:32:33.490Z,1029.97
2016-09-11T05:33:33.489Z,1029.79
2016-09-11T05:34:33.485Z,1029.71
2016-09-11T05:35:33.481Z,1029.57
2016-09-11T05:36:33.478Z,1029.43
2016-09-11T05:37:33.477Z,1029.33
2016-09-11T05:38:33.478Z,1029.25
2016-09-11T05:39:33.472Z,1029.15
2016-09-11T05:40:33.471Z,1029.04
2016-09-11T05:41:33.472Z,1028.92
2016-09-11T05:42:33.475Z,1028.83
2016-09-11T05:43:33.466Z,1028.68
2016-09-11T05:44:33.490Z,1028.59
2016-09-11T05:45:33.463Z,1028.46
2016-09-11T05:46:35.051Z,1028.34
2016-09-11T05:47:33.461Z,1028.21
2016-09-11T05:48:34.012Z,1028.13
2016-09-11T05:49:33.802Z,1028.01
2016-09-11T05:50:33.458Z,1027.88
2016-09-11T05:51:33.965Z,1027.77
2016-09-11T05:52:34.181Z,1027.67
2016-09-11T05:53:33.456Z,1027.54
2016-09-11T05:54:33.458Z,1027.41
2016-09-11T05:55:33.459Z,1027.23
2016-09-11T05:56:33.605Z,1027.12
2016-09-11T05:57:33.458Z,1027.04
2016-09-11T05:58:33.457Z,1026.94
2016-09-11T05:59:33.459Z,1026.8
2016-09-11T06:00:33.460Z,1026.69
2016-09-11T06:01:33.460Z,1026.61
2016-09-11T06:02:33.461Z,1026.52
2016-09-11T06:03:33.463Z,1026.48
2016-09-11T06:04:33.465Z,1026.44
2016-09-11T06:05:33.468Z,1026.34
2016-09-11T06:06:33.469Z,1026.29
2016-09-11T06:07:33.471Z,1026.25
2016-09-11T06:08:33.473Z,1026.09
2016-09-11T06:09:33.478Z,1025.98
2016-09-11T06:10:33.479Z,1025.9
2016-09-11T06:11:36.246Z,1025.81
2016-09-11T06:12:33.487Z,1025.72
2016-09-11T06:13:33.496Z,1025.65
2016-09-11T06:14:33.497Z,1025.55
2016-09-11T06:15:33.496Z,1025.43
2016-09-11T06:16:33.502Z,1025.34
2016-09-11T06:17:33.507Z,1025.23
2016-09-11T06:18:33.511Z,1025.11
2016-09-11T06:19:33.516Z,1025.03
2016-09-11T06:20:33.521Z,1024.96
2016-09-11T06:21:33.528Z,1024.87
2016-09-11T06:22:33.533Z,1024.74
2016-09-11T06:23:33.539Z,1024.67
2016-09-11T06:24:33.537Z,1024.58
2016-09-11T06:25:33.548Z,1024.52
2016-09-11T06:26:33.553Z,1024.45
2016-09-11T06:27:33.565Z,1024.36
2016-09-11T06:28:33.561Z,1024.3
2016-09-11T06:29:33.565Z,1024.18
2016-09-11T06:30:33.571Z,1024.12
2016-09-11T06:31:33.583Z,1023.98
2016-09-11T06:32:33.589Z,1023.98
2016-09-11T06:33:33.591Z,1023.87
2016-09-11T06:34:33.600Z,1023.76
2016-09-11T06:35:33.604Z,1023.69
2016-09-11T06:36:33.621Z,1023.59
2016-09-11T06:37:33.621Z,1023.49
2016-09-11T06:38:33.642Z,1023.4
2016-09-11T06:39:33.634Z,1023.32
2016-09-11T06:40:33.671Z,1023.34
2016-09-11T06:41:33.695Z,1023.28
2016-09-11T06:42:33.664Z,1023.28
2016-09-11T06:43:33.675Z,1023.26
2016-09-11T06:44:33.687Z,1023.2
2016-09-11T06:45:33.681Z,1023.16
2016-09-11T06:46:33.706Z,1023.09
2016-09-11T06:47:33.703Z,1023.04
2016-09-11T06:48:33.705Z,1022.96
2016-09-11T06:49:33.739Z,1022.9
2016-09-11T06:50:33.724Z,1022.81
2016-09-11T06:51:33.731Z,1022.8
2016-09-11T06:52:33.742Z,1022.72
2016-09-11T06:53:33.751Z,1022.72
2016-09-11T06:54:33.771Z,1022.66
2016-09-11T06:56:33.777Z,1022.63
2016-09-11T06:57:35.158Z,1022.6
2016-09-11T06:58:35.029Z,1022.6
2016-09-11T06:59:33.815Z,1022.6
2016-09-11T07:00:33.815Z,1022.55
2016-09-11T07:01:33.823Z,1022.53
2016-09-11T07:02:33.833Z,1022.52
2016-09-11T07:03:33.841Z,1022.53
2016-09-11T07:04:33.977Z,1022.56
2016-09-11T07:06:33.874Z,1022.64
2016-09-11T07:07:33.968Z,1022.64
2016-09-11T07:08:33.891Z,1022.57
2016-09-11T07:09:34.493Z,1022.54
2016-09-11T07:10:34.165Z,1022.55
2016-09-11T07:11:33.941Z,1022.53
2016-09-11T07:12:33.967Z,1022.53
2016-09-11T07:13:34.242Z,1022.51
2016-09-11T07:14:34.217Z,1022.54
2016-09-11T07:15:34.478Z,1022.49
2016-09-11T07:16:33.974Z,1022.49
2016-09-11T07:17:33.987Z,1022.52
2016-09-11T07:18:34.002Z,1022.47
2016-09-11T07:19:34.022Z,1022.43
2016-09-11T07:20:34.030Z,1022.33
2016-09-11T07:21:34.061Z,1022.27
2016-09-11T07:22:34.172Z,1022.27
2016-09-11T07:23:34.050Z,1022.2
2016-09-11T07:24:34.079Z,1022.1
2016-09-11T07:25:34.142Z,1022.06
2016-09-11T07:26:34.093Z,1022.04
2016-09-11T07:27:34.105Z,1022.04
2016-09-11T07:28:34.194Z,1021.93
2016-09-11T07:29:34.357Z,1021.78
2016-09-11T07:30:34.133Z,1021.65
2016-09-11T07:31:34.146Z,1021.51
2016-09-11T07:32:34.181Z,1021.45
2016-09-11T07:33:34.181Z,1021.34
2016-09-11T07:34:34.242Z,1021.2
2016-09-11T07:35:34.241Z,1021.14
2016-09-11T07:36:34.213Z,1021.09
2016-09-11T07:37:34.221Z,1021.06
2016-09-11T07:38:34.234Z,1021.04
2016-09-11T07:39:34.251Z,1021.03
2016-09-11T07:40:34.258Z,1021.07
2016-09-11T07:41:34.270Z,1021.11
2016-09-11T07:42:34.285Z,1021.17
2016-09-11T07:43:34.305Z,1021.25
2016-09-11T07:44:34.322Z,1021.47
2016-09-11T07:45:34.326Z,1021.63
2016-09-11T07:46:34.334Z,1021.76
2016-09-11T07:47:34.349Z,1021.85
2016-09-11T07:48:34.363Z,1021.92
2016-09-11T07:49:34.375Z,1021.99
2016-09-11T07:50:34.385Z,1022.02
2016-09-11T07:51:34.405Z,1022.07
2016-09-11T07:52:34.412Z,1022.2
2016-09-11T07:53:34.423Z,1022.22
2016-09-11T07:54:34.451Z,1022.21
2016-09-11T07:55:34.494Z,1022.25
2016-09-11T07:56:34.467Z,1022.26
2016-09-11T07:57:34.484Z,1022.25
2016-09-11T07:58:34.497Z,1022.23
2016-09-11T07:59:34.531Z,1022.22
2016-09-11T08:00:34.523Z,1022.23
2016-09-11T08:01:34.526Z,1022.21
2016-09-11T08:02:34.544Z,1022.3
2016-09-11T08:03:34.549Z,1022.31
2016-09-11T08:04:34.560Z,1022.38
2016-09-11T08:05:34.580Z,1022.33
2016-09-11T08:06:34.586Z,1022.46
2016-09-11T08:07:34.596Z,1022.63
2016-09-11T08:08:34.605Z,1023.01
2016-09-11T08:09:34.630Z,1023.5
2016-09-11T08:10:34.631Z,1023.94
2016-09-11T08:11:34.674Z,1024.31
2016-09-11T08:12:34.665Z,1024.62
2016-09-11T08:13:34.666Z,1024.86
2016-09-11T08:15:34.712Z,1025.27
2016-09-11T08:16:34.938Z,1025.47
2016-09-11T08:17:34.726Z,1025.63
2016-09-11T08:18:34.735Z,1025.77
2016-09-11T08:19:34.735Z,1025.96
2016-09-11T08:20:34.756Z,1026.09
2016-09-11T08:21:34.769Z,1026.18
2016-09-11T08:22:34.759Z,1026.3
2016-09-11T08:23:35.243Z,1026.39
2016-09-11T08:24:34.789Z,1026.5
2016-09-11T08:25:34.785Z,1026.66
2016-09-11T08:26:34.795Z,1026.75
2016-09-11T08:27:35.548Z,1026.9
2016-09-11T08:28:34.834Z,1026.96
2016-09-11T08:29:34.830Z,1027.03
2016-09-11T08:30:34.848Z,1027.07
2016-09-11T08:31:34.887Z,1027.1
2016-09-11T08:32:34.844Z,1027.18
2016-09-11T08:33:35.604Z,1027.21
2016-09-11T08:34:34.877Z,1027.28
2016-09-11T08:35:34.870Z,1027.36
2016-09-11T08:36:35.026Z,1027.36
2016-09-11T08:37:34.907Z,1027.37
2016-09-11T08:38:34.909Z,1027.49
2016-09-11T08:39:34.905Z,1027.49
2016-09-11T08:40:34.908Z,1027.53
2016-09-11T08:41:34.915Z,1027.58
2016-09-11T08:42:34.917Z,1027.61
2016-09-11T08:43:34.946Z,1027.66
2016-09-11T08:44:34.953Z,1027.71
2016-09-11T08:45:34.953Z,1027.73
2016-09-11T08:46:35.011Z,1027.76
2016-09-11T08:47:34.957Z,1027.8
2016-09-11T08:48:34.969Z,1027.83
2016-09-11T08:49:34.967Z,1027.85
2016-09-11T08:50:34.974Z,1027.85
2016-09-11T08:51:36.402Z,1027.89
2016-09-11T08:52:34.990Z,1027.91
2016-09-11T08:53:35.005Z,1027.91
2016-09-11T08:54:35.123Z,1027.92
2016-09-11T08:55:35.006Z,1027.9
2016-09-11T08:56:35.011Z,1027.94
2016-09-11T08:57:35.019Z,1027.92
2016-09-11T08:58:35.025Z,1027.93
2016-09-11T08:59:35.033Z,1027.95
2016-09-11T09:00:35.038Z,1027.94
2016-09-11T09:01:35.042Z,1027.94
2016-09-11T09:02:35.050Z,1027.89
2016-09-11T09:03:35.054Z,1027.91
2016-09-11T09:04:35.063Z,1027.91
2016-09-11T09:05:35.067Z,1027.9
2016-09-11T09:06:35.079Z,1027.92
2016-09-11T09:07:35.082Z,1027.92
2016-09-11T09:08:35.084Z,1027.99
2016-09-11T09:10:35.098Z,1028.01
2016-09-11T09:11:35.111Z,1028.02
2016-09-11T09:12:35.120Z,1028.08
2016-09-11T09:13:35.116Z,1028.06
2016-09-11T09:14:35.119Z,1028.04
2016-09-11T09:15:35.130Z,1028.06
2016-09-11T09:16:35.132Z,1028.06
2016-09-11T09:17:35.278Z,1028.04
2016-09-11T09:18:35.149Z,1028.06
2016-09-11T09:19:35.166Z,1028.07
2016-09-11T09:20:35.156Z,1028.08
2016-09-11T09:21:35.162Z,1028.06
2016-09-11T09:22:35.168Z,1028.07
2016-09-11T09:23:35.192Z,1028.12
2016-09-11T09:24:35.237Z,1028.14
2016-09-11T09:25:35.187Z,1028.17
2016-09-11T09:26:47.924Z,1028.21
2016-09-11T09:27:35.196Z,1028.24
2016-09-11T09:28:35.207Z,1028.3
2016-09-11T09:29:35.214Z,1028.38
2016-09-11T09:30:35.217Z,1028.39
2016-09-11T09:31:35.227Z,1028.39
2016-09-11T09:32:36.452Z,1028.44
2016-09-11T09:33:35.261Z,1028.46
2016-09-11T09:34:35.572Z,1028.45
2016-09-11T09:35:35.244Z,1028.45
2016-09-11T09:36:35.247Z,1028.48
2016-09-11T09:37:35.255Z,1028.43
2016-09-11T09:38:35.350Z,1028.45
2016-09-11T09:39:35.419Z,1028.46
2016-09-11T09:40:35.272Z,1028.45
2016-09-11T09:41:35.494Z,1028.41
2016-09-11T09:42:35.285Z,1028.44
2016-09-11T09:43:35.291Z,1028.43
2016-09-11T09:44:35.293Z,1028.38
2016-09-11T09:45:35.300Z,1028.33
2016-09-11T09:46:35.306Z,1028.3
2016-09-11T09:47:35.310Z,1028.3
2016-09-11T09:48:35.313Z,1028.24
2016-09-11T09:49:35.685Z,1028.26
2016-09-11T09:50:35.426Z,1028.23
2016-09-11T09:51:35.332Z,1028.25
2016-09-11T09:52:35.339Z,1028.22
2016-09-11T09:53:35.371Z,1028.27
2016-09-11T09:54:35.350Z,1028.28
2016-09-11T09:55:35.666Z,1028.29
2016-09-11T09:56:35.367Z,1028.31
2016-09-11T09:57:35.369Z,1028.33
2016-09-11T09:58:35.369Z,1028.31
2016-09-11T09:59:35.375Z,1028.36
2016-09-11T10:00:35.386Z,1028.34
2016-09-11T10:01:35.392Z,1028.33
2016-09-11T10:02:35.391Z,1028.33
2016-09-11T10:03:35.395Z,1028.27
2016-09-11T10:04:35.432Z,1028.29
2016-09-11T10:05:35.415Z,1028.24
2016-09-11T10:06:35.413Z,1028.16
2016-09-11T10:07:35.447Z,1028.11
2016-09-11T10:08:35.470Z,1028.07
2016-09-11T10:09:35.429Z,1028
2016-09-11T10:10:35.440Z,1027.97
2016-09-11T10:11:35.438Z,1028
2016-09-11T10:12:35.457Z,1027.94
2016-09-11T10:13:35.451Z,1027.92
2016-09-11T10:14:35.458Z,1027.94
2016-09-11T10:15:35.461Z,1027.93
2016-09-11T10:16:35.465Z,1027.99
2016-09-11T10:17:35.473Z,1028.03
2016-09-11T10:18:35.480Z,1028.06
2016-09-11T10:19:35.483Z,1028.09
2016-09-11T10:20:35.488Z,1028.1
2016-09-11T10:21:35.497Z,1028.07
2016-09-11T10:22:35.501Z,1028.07
2016-09-11T10:23:35.505Z,1028.05
2016-09-11T10:24:35.512Z,1028.04
2016-09-11T10:25:35.520Z,1028.05
2016-09-11T10:26:35.523Z,1028.05
2016-09-11T10:27:35.531Z,1028.07
2016-09-11T10:28:35.560Z,1028.08
2016-09-11T10:29:35.656Z,1028.1
2016-09-11T10:30:35.550Z,1028.14
2016-09-11T10:31:35.637Z,1028.16
2016-09-11T10:32:35.557Z,1028.14
2016-09-11T10:33:35.564Z,1028.15
2016-09-11T10:34:35.574Z,1028.16
2016-09-11T10:35:35.575Z,1028.07
2016-09-11T10:36:35.578Z,1028.1
2016-09-11T10:37:35.585Z,1028.06
2016-09-11T10:38:35.590Z,1028.03
2016-09-11T10:39:35.592Z,1028.05
2016-09-11T10:40:35.600Z,1028.02
2016-09-11T10:41:35.609Z,1027.99
2016-09-11T10:42:35.614Z,1027.98
2016-09-11T10:43:35.617Z,1028.03
2016-09-11T10:44:35.655Z,1028.04
2016-09-11T10:45:35.634Z,1028.01
2016-09-11T10:46:35.634Z,1028.02
2016-09-11T10:47:35.642Z,1027.93
2016-09-11T10:48:35.647Z,1027.96
2016-09-11T10:49:35.667Z,1027.95
2016-09-11T10:50:36.428Z,1027.95
2016-09-11T10:51:35.659Z,1027.9
2016-09-11T10:52:36.262Z,1027.92
2016-09-11T10:53:35.673Z,1027.96
2016-09-11T10:54:35.678Z,1027.97
2016-09-11T10:55:35.687Z,1027.91
2016-09-11T10:56:35.689Z,1027.92
2016-09-11T10:57:35.694Z,1027.9
2016-09-11T10:58:35.705Z,1027.89
2016-09-11T10:59:35.707Z,1027.87
2016-09-11T11:00:35.864Z,1027.89
2016-09-11T11:01:35.723Z,1027.88
2016-09-11T11:02:35.724Z,1027.84
2016-09-11T11:03:35.741Z,1027.86
2016-09-11T11:04:35.745Z,1027.85
2016-09-11T11:05:35.855Z,1027.83
2016-09-11T11:06:35.885Z,1027.75
2016-09-11T11:07:35.751Z,1027.71
2016-09-11T11:08:36.108Z,1027.72
2016-09-11T11:09:35.775Z,1027.71
2016-09-11T11:11:35.775Z,1027.67
2016-09-11T11:12:35.797Z,1027.64
2016-09-11T11:13:35.785Z,1027.65
2016-09-11T11:14:35.791Z,1027.63
2016-09-11T11:15:35.804Z,1027.61
2016-09-11T11:16:35.805Z,1027.58
2016-09-11T11:17:35.811Z,1027.56
2016-09-11T11:18:35.816Z,1027.55
2016-09-11T11:19:35.824Z,1027.57
2016-09-11T11:20:35.829Z,1027.54
2016-09-11T11:21:35.841Z,1027.57
2016-09-11T11:22:35.842Z,1027.56
2016-09-11T11:23:35.847Z,1027.61
2016-09-11T11:24:35.854Z,1027.64
2016-09-11T11:25:35.859Z,1027.64
2016-09-11T11:26:35.869Z,1027.67
2016-09-11T11:27:35.881Z,1027.67
2016-09-11T11:28:35.900Z,1027.67
2016-09-11T11:29:35.881Z,1027.65
2016-09-11T11:30:35.888Z,1027.66
2016-09-11T11:31:35.894Z,1027.63
2016-09-11T11:32:35.902Z,1027.66
2016-09-11T11:33:35.927Z,1027.64
2016-09-11T11:34:35.913Z,1027.67
2016-09-11T11:35:35.919Z,1027.64
2016-09-11T11:36:36.071Z,1027.68
2016-09-11T11:37:35.935Z,1027.71
2016-09-11T11:38:35.943Z,1027.69
2016-09-11T11:39:35.949Z,1027.73
2016-09-11T11:40:35.951Z,1027.72
2016-09-11T11:41:35.957Z,1027.73
2016-09-11T11:42:35.966Z,1027.76
2016-09-11T11:43:35.971Z,1027.74
2016-09-11T11:44:35.972Z,1027.63
2016-09-11T11:45:35.979Z,1027.55
2016-09-11T11:46:35.984Z,1027.51
2016-09-11T11:47:35.993Z,1027.52
2016-09-11T11:48:50.628Z,1027.49
2016-09-11T11:49:36.071Z,1027.46
2016-09-11T11:50:36.026Z,1027.43
2016-09-11T11:51:36.016Z,1027.35
2016-09-11T11:52:36.024Z,1027.31
2016-09-11T11:53:36.029Z,1027.26
2016-09-11T11:54:36.032Z,1027.16
2016-09-11T11:55:36.038Z,1027.1
2016-09-11T11:56:36.054Z,1026.99
2016-09-11T11:57:36.053Z,1026.94
2016-09-11T11:58:36.060Z,1026.87
2016-09-11T11:59:36.071Z,1026.8
2016-09-11T12:00:36.073Z,1026.75
2016-09-11T12:01:36.079Z,1026.71
2016-09-11T12:02:36.082Z,1026.64
2016-09-11T12:03:36.103Z,1026.58
2016-09-11T12:04:36.103Z,1026.47
2016-09-11T12:05:36.102Z,1026.38
2016-09-11T12:06:36.138Z,1026.32
2016-09-11T12:07:36.317Z,1026.26
2016-09-11T12:08:36.251Z,1026.23
2016-09-11T12:09:36.130Z,1026.14
2016-09-11T12:10:36.793Z,1026.14
2016-09-11T12:11:36.147Z,1026.06
2016-09-11T12:12:36.155Z,1026.02
2016-09-11T12:13:36.163Z,1025.99